createdAt,value
2023-04-29T00:01:41.682Z,12.04
2023-04-29T00:04:10.655Z,12.04
2023-04-29T00:06:39.629Z,12.02
2023-04-29T00:09:08.350Z,12.00
2023-04-29T00:11:37.080Z,12.02
2023-04-29T00:14:05.948Z,12.01
2023-04-29T00:16:34.802Z,11.97
2023-04-29T00:19:04.903Z,11.95
2023-04-29T00:21:33.696Z,11.93
2023-04-29T00:24:02.385Z,11.93
2023-04-29T00:26:31.248Z,11.90
2023-04-29T00:29:00.666Z,11.89
2023-04-29T00:31:29.425Z,11.88
2023-04-29T00:33:58.395Z,11.88
2023-04-29T00:36:29.071Z,11.93
2023-04-29T00:38:58.332Z,11.97
2023-04-29T00:41:27.992Z,12.01
2023-04-29T00:43:56.758Z,12.01
2023-04-29T00:46:25.551Z,12.04
2023-04-29T00:48:54.253Z,12.08
2023-04-29T00:51:23.154Z,11.98
2023-04-29T00:53:53.619Z,12.11
2023-04-29T00:56:23.065Z,12.09
2023-04-29T00:58:52.702Z,12.08
2023-04-29T01:01:22.128Z,12.06
2023-04-29T01:03:51.961Z,12.04
2023-04-29T01:06:31.189Z,12.02
2023-04-29T01:09:25.822Z,11.93
2023-04-29T01:12:06.730Z,11.99
2023-04-29T01:14:36.951Z,12.01
2023-04-29T01:17:11.962Z,12.00
2023-04-29T01:19:48.800Z,11.92
2023-04-29T01:22:18.994Z,12.00
2023-04-29T01:24:49.727Z,12.03
2023-04-29T01:27:29.780Z,12.03
2023-04-29T01:30:11.783Z,12.03
2023-04-29T01:32:51.630Z,12.01
2023-04-29T01:35:34.740Z,11.98
2023-04-29T01:38:18.935Z,11.97
2023-04-29T01:40:59.176Z,11.95
2023-04-29T01:43:34.002Z,11.96
2023-04-29T01:46:12.242Z,11.95
2023-04-29T01:48:41.376Z,11.94
2023-04-29T01:51:10.075Z,11.92
2023-04-29T01:53:40.422Z,11.91
2023-04-29T01:56:10.894Z,11.90
2023-04-29T01:59:00.651Z,11.91
2023-04-29T02:01:53.737Z,11.92
2023-04-29T02:04:24.397Z,11.94
2023-04-29T02:06:53.565Z,11.95
2023-04-29T02:09:22.519Z,11.97
2023-04-29T02:11:57.371Z,11.98
2023-04-29T02:14:26.142Z,11.99
2023-04-29T02:16:55.065Z,12.02
2023-04-29T02:19:23.844Z,12.02
2023-04-29T02:21:56.237Z,11.57
2023-04-29T02:24:27.737Z,12.03
2023-04-29T02:26:59.058Z,12.02
2023-04-29T02:29:29.887Z,12.01
2023-04-29T02:31:59.012Z,12.00
2023-04-29T02:34:27.942Z,11.99
2023-04-29T02:36:56.839Z,11.97
2023-04-29T02:39:25.858Z,11.91
2023-04-29T02:41:58.674Z,11.88
2023-04-29T02:44:27.704Z,11.90
2023-04-29T02:46:57.754Z,11.95
2023-04-29T02:49:26.691Z,12.01
2023-04-29T02:51:55.775Z,12.04
2023-04-29T02:54:25.206Z,12.06
2023-04-29T02:56:54.041Z,12.11
2023-04-29T02:59:24.162Z,12.14
2023-04-29T03:01:54.133Z,12.17
2023-04-29T03:04:25.621Z,12.16
2023-04-29T03:06:56.056Z,12.14
2023-04-29T03:09:24.801Z,12.13
2023-04-29T03:11:53.552Z,12.07
2023-04-29T03:14:24.026Z,12.01
2023-04-29T03:16:58.036Z,11.93
2023-04-29T03:19:26.806Z,11.88
2023-04-29T03:21:55.548Z,11.79
2023-04-29T03:24:24.324Z,11.70
2023-04-29T03:26:53.190Z,11.67
2023-04-29T03:29:24.248Z,11.65
2023-04-29T03:31:53.069Z,11.62
2023-04-29T03:34:21.968Z,11.60
2023-04-29T03:36:59.887Z,11.55
2023-04-29T03:39:32.499Z,11.51
2023-04-29T03:42:01.542Z,11.52
2023-04-29T03:44:48.024Z,11.06
2023-04-29T03:47:18.503Z,11.63
2023-04-29T03:49:48.315Z,11.69
2023-04-29T03:52:17.604Z,11.75
2023-04-29T03:54:48.919Z,11.78
2023-04-29T03:57:17.679Z,11.83
2023-04-29T03:59:50.675Z,11.85
2023-04-29T04:02:21.864Z,11.85
2023-04-29T04:04:51.099Z,11.88
2023-04-29T04:07:20.383Z,11.89
2023-04-29T04:10:08.685Z,11.93
2023-04-29T04:12:37.544Z,11.94
2023-04-29T04:15:08.613Z,11.95
2023-04-29T04:17:37.555Z,11.96
2023-04-29T04:20:09.755Z,11.95
2023-04-29T04:22:40.966Z,11.97
2023-04-29T04:25:26.309Z,11.97
2023-04-29T04:28:00.983Z,11.99
2023-04-29T04:30:50.947Z,12.03
2023-04-29T04:33:20.032Z,12.08
2023-04-29T04:35:48.839Z,12.17
2023-04-29T04:38:17.671Z,12.25
2023-04-29T04:40:47.847Z,12.32
2023-04-29T04:43:29.709Z,12.37
2023-04-29T04:45:59.897Z,12.43
2023-04-29T04:48:28.775Z,12.52
2023-04-29T04:51:00.050Z,12.55
2023-04-29T04:53:28.973Z,12.59
2023-04-29T04:56:03.186Z,12.60
2023-04-29T04:58:33.456Z,12.62
2023-04-29T05:01:03.779Z,12.71
2023-04-29T05:03:34.296Z,12.83
2023-04-29T05:06:03.660Z,12.94
2023-04-29T05:08:32.679Z,13.09
2023-04-29T05:11:03.782Z,13.34
2023-04-29T05:13:34.158Z,13.60
2023-04-29T05:16:06.774Z,13.78
2023-04-29T05:18:41.130Z,13.78
2023-04-29T05:21:11.079Z,13.62
2023-04-29T05:23:39.842Z,13.41
2023-04-29T05:26:08.583Z,13.27
2023-04-29T05:28:41.171Z,13.22
2023-04-29T05:31:12.456Z,13.28
2023-04-29T05:33:43.330Z,13.36
2023-04-29T05:36:12.310Z,13.47
2023-04-29T05:38:53.687Z,13.62
2023-04-29T05:41:25.029Z,13.76
2023-04-29T05:44:14.231Z,13.88
2023-04-29T05:46:44.496Z,13.96
2023-04-29T05:49:13.446Z,14.08
2023-04-29T05:51:42.221Z,14.19
2023-04-29T05:54:11.253Z,14.25
2023-04-29T05:56:40.401Z,14.38
2023-04-29T05:59:09.332Z,14.55
2023-04-29T06:01:38.958Z,14.64
2023-04-29T06:04:09.766Z,14.71
2023-04-29T06:06:58.276Z,14.83
2023-04-29T06:09:49.880Z,14.76
2023-04-29T06:12:18.788Z,14.85
2023-04-29T06:14:49.031Z,15.11
2023-04-29T06:17:17.890Z,15.33
2023-04-29T06:19:48.078Z,15.49
2023-04-29T06:22:16.824Z,15.51
2023-04-29T06:24:52.766Z,15.32
2023-04-29T06:27:33.949Z,15.13
2023-04-29T06:30:02.919Z,15.07
2023-04-29T06:32:32.035Z,15.03
2023-04-29T06:35:02.504Z,14.96
2023-04-29T06:37:56.618Z,14.83
2023-04-29T06:40:44.935Z,14.81
2023-04-29T06:43:33.985Z,14.97
2023-04-29T06:46:17.749Z,15.23
2023-04-29T06:49:05.088Z,15.40
2023-04-29T06:51:37.032Z,15.41
2023-04-29T06:54:05.699Z,15.32
2023-04-29T06:56:34.433Z,15.15
2023-04-29T06:59:04.535Z,14.94
2023-04-29T07:01:33.328Z,14.87
2023-04-29T07:04:02.266Z,15.03
2023-04-29T07:06:31.101Z,15.51
2023-04-29T07:09:01.208Z,16.17
2023-04-29T07:11:30.047Z,16.58
2023-04-29T07:13:58.763Z,16.84
2023-04-29T07:16:31.485Z,17.10
2023-04-29T07:19:01.505Z,17.18
2023-04-29T07:21:30.772Z,17.21
2023-04-29T07:24:02.514Z,17.15
2023-04-29T07:26:32.265Z,17.02
2023-04-29T07:29:01.077Z,16.83
2023-04-29T07:31:30.586Z,16.57
2023-04-29T07:33:59.406Z,16.43
2023-04-29T07:36:28.771Z,16.43
2023-04-29T07:38:59.347Z,16.30
2023-04-29T07:41:30.162Z,16.34
2023-04-29T07:43:58.873Z,16.39
2023-04-29T07:46:28.550Z,16.37
2023-04-29T07:48:58.586Z,16.43
2023-04-29T07:51:29.194Z,16.46
2023-04-29T07:53:57.977Z,16.28
2023-04-29T07:56:26.849Z,16.06
2023-04-29T07:58:57.040Z,15.82
2023-04-29T08:01:25.801Z,15.70
2023-04-29T08:03:54.845Z,15.58
2023-04-29T08:06:26.102Z,15.57
2023-04-29T08:08:56.281Z,15.51
2023-04-29T08:11:26.217Z,15.44
2023-04-29T08:13:58.720Z,15.48
2023-04-29T08:16:28.053Z,16.00
2023-04-29T08:18:57.049Z,16.81
2023-04-29T08:21:25.918Z,17.17
2023-04-29T08:23:55.728Z,17.35
2023-04-29T08:26:24.443Z,17.49
2023-04-29T08:28:53.287Z,17.57
2023-04-29T08:31:24.038Z,17.33
2023-04-29T08:33:52.958Z,17.11
2023-04-29T08:36:21.760Z,16.78
2023-04-29T08:38:52.721Z,16.58
2023-04-29T08:41:21.407Z,16.46
2023-04-29T08:43:50.233Z,16.42
2023-04-29T08:46:20.732Z,16.18
2023-04-29T08:48:51.636Z,16.15
2023-04-29T08:51:20.433Z,16.03
2023-04-29T08:53:49.187Z,16.02
2023-04-29T08:56:20.631Z,15.91
2023-04-29T08:58:54.469Z,15.87
2023-04-29T09:01:24.279Z,15.87
2023-04-29T09:04:02.422Z,15.83
2023-04-29T09:06:33.447Z,15.90
2023-04-29T09:09:04.028Z,16.07
2023-04-29T09:11:33.361Z,16.22
2023-04-29T09:14:04.407Z,16.31
2023-04-29T09:16:33.382Z,16.30
2023-04-29T09:19:03.510Z,16.15
2023-04-29T09:21:33.264Z,15.99
2023-04-29T09:24:03.041Z,15.82
2023-04-29T09:26:42.528Z,15.58
2023-04-29T09:29:14.121Z,15.53
2023-04-29T09:31:43.461Z,15.68
2023-04-29T09:34:14.653Z,16.12
2023-04-29T09:36:48.028Z,16.64
2023-04-29T09:39:19.105Z,17.24
2023-04-29T09:42:02.752Z,17.58
2023-04-29T09:44:34.511Z,18.16
2023-04-29T09:47:05.221Z,18.48
2023-04-29T09:49:37.534Z,18.41
2023-04-29T09:52:08.187Z,18.12
2023-04-29T09:54:38.630Z,18.00
2023-04-29T09:57:08.514Z,17.96
2023-04-29T09:59:47.472Z,18.07
2023-04-29T10:02:20.102Z,18.19
2023-04-29T10:04:57.346Z,18.37
2023-04-29T10:07:28.726Z,17.88
2023-04-29T10:09:57.939Z,17.25
2023-04-29T10:12:27.488Z,16.94
2023-04-29T10:15:05.028Z,16.52
2023-04-29T10:17:38.133Z,16.88
2023-04-29T10:20:11.726Z,17.09
2023-04-29T10:22:46.874Z,16.75
2023-04-29T10:25:19.157Z,16.00
2023-04-29T10:27:49.175Z,15.60
2023-04-29T10:30:19.223Z,15.54
2023-04-29T10:32:51.753Z,15.79
2023-04-29T10:35:25.769Z,16.18
2023-04-29T10:37:57.034Z,16.52
2023-04-29T10:40:34.413Z,16.98
2023-04-29T10:43:04.886Z,16.71
2023-04-29T10:45:37.750Z,16.37
2023-04-29T10:48:18.915Z,16.23
2023-04-29T10:51:05.639Z,15.88
2023-04-29T10:53:34.558Z,15.50
2023-04-29T10:56:11.035Z,15.17
2023-04-29T10:58:44.224Z,14.82
2023-04-29T11:01:14.525Z,14.96
2023-04-29T11:03:55.129Z,14.81
2023-04-29T11:06:42.252Z,14.73
2023-04-29T11:09:19.866Z,14.45
2023-04-29T11:12:00.684Z,14.21
2023-04-29T11:14:33.250Z,14.44
2023-04-29T11:17:04.477Z,14.73
2023-04-29T11:19:35.599Z,15.04
2023-04-29T11:22:30.414Z,15.25
2023-04-29T11:25:01.571Z,15.26
2023-04-29T11:27:33.058Z,15.36
2023-04-29T11:30:05.486Z,14.91
2023-04-29T11:32:36.145Z,14.91
2023-04-29T11:35:12.737Z,14.64
2023-04-29T11:37:44.885Z,14.29
2023-04-29T11:40:14.940Z,14.18
2023-04-29T11:42:45.779Z,13.93
2023-04-29T11:45:15.612Z,13.67
2023-04-29T11:47:46.667Z,13.41
2023-04-29T11:50:20.531Z,13.15
2023-04-29T11:52:51.409Z,13.12
2023-04-29T11:55:20.903Z,13.13
2023-04-29T11:57:52.567Z,13.06
2023-04-29T12:00:22.006Z,13.05
2023-04-29T12:02:50.903Z,13.08
2023-04-29T12:05:20.054Z,12.99
2023-04-29T12:07:52.341Z,12.95
2023-04-29T12:10:21.604Z,12.83
2023-04-29T12:12:51.018Z,12.77
2023-04-29T12:15:22.678Z,12.65
2023-04-29T12:17:52.084Z,12.60
2023-04-29T12:20:22.083Z,12.61
2023-04-29T12:22:52.184Z,12.52
2023-04-29T12:25:22.354Z,12.51
2023-04-29T12:27:51.820Z,12.49
2023-04-29T12:30:21.450Z,12.59
2023-04-29T12:32:50.190Z,12.77
2023-04-29T12:35:19.727Z,12.79
2023-04-29T12:37:53.319Z,12.72
2023-04-29T12:40:23.114Z,12.70
2023-04-29T12:42:51.981Z,12.70
2023-04-29T12:45:35.359Z,12.62
2023-04-29T12:48:08.957Z,12.59
2023-04-29T12:50:43.886Z,12.48
2023-04-29T12:53:14.122Z,12.47
2023-04-29T12:55:42.937Z,12.37
2023-04-29T12:58:11.696Z,12.35
2023-04-29T13:00:40.569Z,12.31
2023-04-29T13:03:09.688Z,12.36
2023-04-29T13:05:39.094Z,12.56
2023-04-29T13:08:08.304Z,12.73
2023-04-29T13:10:38.546Z,12.63
2023-04-29T13:13:10.187Z,12.67
2023-04-29T13:15:39.715Z,12.69
2023-04-29T13:18:08.902Z,12.70
2023-04-29T13:20:42.381Z,12.64
2023-04-29T13:23:12.595Z,12.62
2023-04-29T13:25:46.053Z,12.52
2023-04-29T13:28:15.896Z,12.43
2023-04-29T13:30:44.975Z,12.35
2023-04-29T13:33:15.054Z,12.48
2023-04-29T13:35:44.058Z,12.36
2023-04-29T13:38:12.790Z,12.22
2023-04-29T13:40:46.519Z,12.17
2023-04-29T13:43:20.997Z,12.06
2023-04-29T13:45:55.687Z,12.04
2023-04-29T13:49:00.880Z,11.93
2023-04-29T13:54:41.164Z,11.89
2023-04-29T13:59:36.134Z,12.01
2023-04-29T14:04:31.048Z,12.54
2023-04-29T14:07:04.176Z,12.74
2023-04-29T14:09:33.497Z,12.72
2023-04-29T14:12:06.537Z,12.82
2023-04-29T14:14:38.838Z,12.85
2023-04-29T14:17:11.062Z,12.85
2023-04-29T14:19:42.381Z,13.11
2023-04-29T14:22:11.340Z,13.73
2023-04-29T14:24:40.560Z,14.19
2023-04-29T14:27:10.853Z,14.74
2023-04-29T14:29:44.900Z,15.12
2023-04-29T14:32:13.909Z,15.32
2023-04-29T14:34:43.944Z,15.50
2023-04-29T14:37:13.354Z,15.53
2023-04-29T14:39:43.658Z,15.38
2023-04-29T14:42:18.662Z,15.35
2023-04-29T14:44:47.997Z,15.38
2023-04-29T14:47:16.873Z,15.42
2023-04-29T14:49:46.064Z,15.24
2023-04-29T14:52:16.893Z,15.39
2023-04-29T14:54:45.714Z,15.22
2023-04-29T14:57:15.917Z,15.15
2023-04-29T14:59:44.863Z,14.94
2023-04-29T15:02:13.706Z,14.84
2023-04-29T15:04:45.756Z,14.68
2023-04-29T15:07:14.897Z,14.23
2023-04-29T15:09:43.682Z,14.08
2023-04-29T15:12:14.405Z,14.01
2023-04-29T15:14:44.550Z,13.92
2023-04-29T15:17:13.425Z,13.76
2023-04-29T15:19:42.134Z,13.68
2023-04-29T15:22:10.978Z,13.56
2023-04-29T15:24:39.995Z,13.53
2023-04-29T15:27:08.778Z,13.50
2023-04-29T15:29:38.662Z,13.44
2023-04-29T15:32:10.614Z,13.50
2023-04-29T15:34:39.542Z,13.60
2023-04-29T15:37:08.664Z,13.70
2023-04-29T15:39:37.618Z,13.85
2023-04-29T15:42:07.021Z,14.00
2023-04-29T15:44:35.867Z,14.16
2023-04-29T15:47:04.963Z,14.28
2023-04-29T15:49:38.451Z,14.46
2023-04-29T15:52:07.282Z,14.61
2023-04-29T15:54:36.555Z,14.65
2023-04-29T15:57:05.819Z,14.61
2023-04-29T15:59:34.706Z,14.59
2023-04-29T16:02:04.549Z,14.58
2023-04-29T16:04:34.832Z,14.57
2023-04-29T16:07:05.497Z,14.62
2023-04-29T16:09:35.928Z,14.55
2023-04-29T16:12:05.443Z,14.54
2023-04-29T16:14:34.628Z,14.48
2023-04-29T16:17:05.766Z,14.42
2023-04-29T16:19:37.155Z,14.25
2023-04-29T16:22:06.451Z,14.20
2023-04-29T16:24:35.525Z,14.12
2023-04-29T16:27:04.481Z,14.07
2023-04-29T16:29:33.341Z,13.97
2023-04-29T16:32:02.131Z,13.91
2023-04-29T16:34:31.120Z,13.87
2023-04-29T16:37:01.366Z,13.85
2023-04-29T16:39:30.297Z,13.75
2023-04-29T16:41:59.697Z,13.71
2023-04-29T16:44:28.483Z,13.71
2023-04-29T16:46:57.301Z,13.65
2023-04-29T16:49:27.316Z,13.62
2023-04-29T16:51:56.318Z,13.55
2023-04-29T16:54:27.647Z,13.52
2023-04-29T16:56:56.433Z,13.49
2023-04-29T16:59:25.201Z,13.55
2023-04-29T17:01:56.150Z,13.50
2023-04-29T17:04:25.138Z,13.47
2023-04-29T17:06:54.438Z,13.52
2023-04-29T17:09:25.902Z,13.53
2023-04-29T17:11:56.347Z,13.45
2023-04-29T17:14:27.227Z,13.44
2023-04-29T17:16:56.043Z,13.34
2023-04-29T17:19:24.862Z,13.34
2023-04-29T17:21:53.863Z,13.32
2023-04-29T17:24:22.668Z,13.31
2023-04-29T17:26:51.498Z,13.36
2023-04-29T17:29:21.711Z,13.33
2023-04-29T17:31:54.966Z,13.35
2023-04-29T17:34:25.726Z,13.38
2023-04-29T17:36:55.115Z,13.35
2023-04-29T17:39:23.918Z,13.32
2023-04-29T17:41:52.693Z,13.30
2023-04-29T17:44:23.642Z,13.33
2023-04-29T17:46:52.606Z,13.35
2023-04-29T17:49:21.444Z,13.30
2023-04-29T17:51:50.255Z,13.25
2023-04-29T17:54:18.989Z,13.25
2023-04-29T17:56:47.770Z,13.20
2023-04-29T17:59:16.613Z,13.16
2023-04-29T18:01:46.877Z,13.14
2023-04-29T18:04:15.727Z,13.11
2023-04-29T18:06:44.530Z,13.01
2023-04-29T18:09:13.372Z,12.97
2023-04-29T18:11:42.613Z,12.93
2023-04-29T18:14:11.423Z,12.93
2023-04-29T18:16:40.386Z,12.90
2023-04-29T18:19:10.591Z,12.90
2023-04-29T18:21:39.457Z,12.92
2023-04-29T18:24:08.603Z,12.90
2023-04-29T18:26:37.420Z,12.88
2023-04-29T18:29:06.271Z,12.88
2023-04-29T18:31:35.139Z,12.83
2023-04-29T18:34:04.647Z,12.78
2023-04-29T18:36:35.008Z,12.76
2023-04-29T18:39:05.080Z,12.72
2023-04-29T18:41:36.456Z,12.69
2023-04-29T18:44:05.592Z,12.65
2023-04-29T18:46:34.893Z,12.64
2023-04-29T18:49:04.205Z,12.63
2023-04-29T18:51:35.032Z,12.61
2023-04-29T18:54:04.715Z,12.60
2023-04-29T18:56:35.165Z,12.61
2023-04-29T18:59:04.910Z,12.43
2023-04-29T19:01:34.236Z,12.58
2023-04-29T19:04:04.878Z,12.58
2023-04-29T19:06:35.901Z,12.58
2023-04-29T19:09:07.149Z,12.57
2023-04-29T19:11:37.411Z,12.58
2023-04-29T19:14:07.889Z,12.57
2023-04-29T19:16:37.353Z,12.57
2023-04-29T19:19:06.768Z,12.56
2023-04-29T19:21:39.651Z,12.55
2023-04-29T19:24:08.625Z,12.54
2023-04-29T19:26:39.558Z,12.52
2023-04-29T19:29:09.445Z,12.47
2023-04-29T19:31:40.298Z,12.46
2023-04-29T19:34:09.150Z,12.47
2023-04-29T19:36:39.291Z,12.47
2023-04-29T19:39:10.011Z,12.49
2023-04-29T19:41:39.120Z,12.49
2023-04-29T19:44:10.856Z,12.48
2023-04-29T19:46:42.552Z,12.47
2023-04-29T19:49:12.839Z,12.46
2023-04-29T19:51:46.056Z,12.43
2023-04-29T19:54:14.931Z,12.43
2023-04-29T19:56:46.035Z,12.45
2023-04-29T19:59:14.854Z,12.45
2023-04-29T20:01:43.679Z,12.45
2023-04-29T20:04:12.904Z,12.45
2023-04-29T20:06:43.141Z,12.43
2023-04-29T20:09:12.106Z,12.38
2023-04-29T20:11:41.135Z,12.34
2023-04-29T20:14:10.036Z,12.30
2023-04-29T20:16:38.978Z,12.22
2023-04-29T20:19:08.055Z,12.07
2023-04-29T20:21:37.910Z,11.89
2023-04-29T20:24:08.258Z,11.70
2023-04-29T20:26:37.041Z,11.54
2023-04-29T20:29:06.108Z,11.48
2023-04-29T20:31:35.159Z,11.51
2023-04-29T20:34:04.125Z,11.54
2023-04-29T20:36:33.210Z,11.58
2023-04-29T20:39:02.212Z,11.60
2023-04-29T20:41:32.805Z,11.61
2023-04-29T20:44:03.337Z,11.62
2023-04-29T20:46:32.757Z,11.64
2023-04-29T20:49:03.128Z,11.65
2023-04-29T20:51:32.652Z,11.63
2023-04-29T20:54:01.690Z,11.63
2023-04-29T20:56:31.959Z,11.60
2023-04-29T20:59:00.832Z,11.58
2023-04-29T21:01:29.771Z,11.56
2023-04-29T21:03:58.771Z,11.54
2023-04-29T21:06:28.197Z,11.54
2023-04-29T21:08:57.088Z,11.53
2023-04-29T21:11:25.970Z,11.50
2023-04-29T21:13:56.194Z,11.46
2023-04-29T21:16:25.277Z,11.44
2023-04-29T21:18:54.273Z,11.48
2023-04-29T21:21:23.899Z,11.55
2023-04-29T21:23:52.944Z,11.56
2023-04-29T21:26:22.190Z,11.55
2023-04-29T21:28:51.420Z,11.56
2023-04-29T21:31:21.773Z,11.56
2023-04-29T21:33:50.645Z,11.55
2023-04-29T21:36:19.429Z,11.54
2023-04-29T21:38:48.827Z,11.53
2023-04-29T21:41:22.559Z,11.52
2023-04-29T21:43:51.984Z,11.55
2023-04-29T21:46:22.406Z,11.54
2023-04-29T21:48:51.557Z,11.55
2023-04-29T21:51:22.720Z,11.53
2023-04-29T21:53:51.641Z,11.53
2023-04-29T21:56:22.689Z,11.52
2023-04-29T21:58:52.305Z,11.49
2023-04-29T22:01:40.358Z,11.46
2023-04-29T22:04:09.274Z,11.43
2023-04-29T22:06:38.344Z,11.43
2023-04-29T22:09:08.712Z,11.47
2023-04-29T22:11:37.812Z,11.41
2023-04-29T22:14:06.669Z,11.37
2023-04-29T22:16:37.029Z,11.34
2023-04-29T22:19:05.823Z,11.34
2023-04-29T22:21:34.653Z,11.33
2023-04-29T22:24:03.435Z,11.33
2023-04-29T22:26:32.206Z,11.31
2023-04-29T22:29:00.956Z,11.26
2023-04-29T22:31:29.770Z,11.24
2023-04-29T22:33:59.962Z,11.24
2023-04-29T22:36:28.707Z,11.24
2023-04-29T22:38:57.482Z,11.24
2023-04-29T22:41:26.212Z,11.18
2023-04-29T22:43:57.633Z,11.16
2023-04-29T22:46:26.881Z,11.16
2023-04-29T22:48:55.772Z,11.17
2023-04-29T22:51:25.862Z,11.23
2023-04-29T22:53:54.586Z,11.18
2023-04-29T22:56:24.583Z,11.21
2023-04-29T22:58:53.366Z,11.19
2023-04-29T23:01:22.148Z,11.19
2023-04-29T23:03:50.865Z,11.20
2023-04-29T23:06:21.237Z,11.19
2023-04-29T23:08:51.522Z,11.19
2023-04-29T23:11:20.377Z,11.17
2023-04-29T23:13:49.158Z,11.13
2023-04-29T23:16:17.919Z,11.15
2023-04-29T23:18:46.888Z,11.12
2023-04-29T23:21:15.653Z,11.11
2023-04-29T23:23:44.358Z,11.09
2023-04-29T23:26:14.479Z,11.08
2023-04-29T23:28:43.244Z,11.05
2023-04-29T23:31:12.002Z,11.04
2023-04-29T23:33:40.780Z,11.02
2023-04-29T23:36:09.564Z,11.01
2023-04-29T23:38:38.350Z,11.01
2023-04-29T23:41:07.236Z,10.97
2023-04-29T23:43:37.642Z,10.91
2023-04-29T23:46:06.420Z,10.86
2023-04-29T23:48:35.236Z,10.85
2023-04-29T23:51:04.050Z,10.82
2023-04-29T23:53:32.963Z,10.78
2023-04-29T23:56:01.755Z,10.74
2023-04-29T23:58:30.548Z,10.68
